To NAV CANADA Home Page Login to a new session Search on AWWS site Feedback and Comments Disclaimer Vers la page française équivalente Tips FAQ What's new on the site To the Forecasts and Observations / NOTAM section To "File a Flight Plan" website Publications and other links Update of the User's profile FIC Telephone Numbers My Weather Data Folder Route Weather Data Regional Weather Data Local Weather Data To the Forecasts and Observations / NOTAM section
Request Generated 04/19/2015 at 14:07:05 UTC . Weather information available at that time is displayed.

METAR/TAF

VANCOUVER/VANCOUVER INTL/BC    

METAR CYVR 191400Z 32005KT 30SM OVC250 08/07 A3024 RMK CI8 SLP240=
METAR CYVR 191300Z 35004KT 30SM BKN230 06/04 A3023 RMK CI5 SLP238=
METAR CYVR 191200Z 31005KT 15SM FEW230 07/06 A3024 RMK CI1 SLP240=

TAF CYVR 191138Z 1912/2018 VRB03KT P6SM SCT220
FM191800 29012KT P6SM SKC
BECMG 2005/2007 VRB03KT
RMK NXT FCST BY 191500Z=
Your time UTC time
Weather data provided by Environment Canada and NAV CANADA